sensor_id;sensor_type;location;lat;lon;timestamp;pressure;altitude;pressure_sealevel;temperature;humidity
35507;BME280;36461;52.018;21.036;2023-04-16T00:01:39;100136.84;;;9.11;84.83
35507;BME280;36461;52.018;21.036;2023-04-16T00:04:09;100134.74;;;9.07;85.08
35507;BME280;36461;52.018;21.036;2023-04-16T00:06:39;100137.64;;;9.02;85.09
35507;BME280;36461;52.018;21.036;2023-04-16T00:09:07;100134.60;;;8.99;85.22
35507;BME280;36461;52.018;21.036;2023-04-16T00:11:35;100137.89;;;9.00;85.44
35507;BME280;36461;52.018;21.036;2023-04-16T00:14:03;100138.56;;;9.00;85.26
35507;BME280;36461;52.018;21.036;2023-04-16T00:16:32;100140.42;;;9.01;85.59
35507;BME280;36461;52.018;21.036;2023-04-16T00:18:59;100141.95;;;9.02;85.57
35507;BME280;36461;52.018;21.036;2023-04-16T00:21:27;100142.20;;;9.00;85.45
35507;BME280;36461;52.018;21.036;2023-04-16T00:23:55;100142.39;;;8.99;85.72
35507;BME280;36461;52.018;21.036;2023-04-16T00:26:23;100141.80;;;9.01;85.70
35507;BME280;36461;52.018;21.036;2023-04-16T00:28:52;100139.62;;;8.99;85.43
35507;BME280;36461;52.018;21.036;2023-04-16T00:31:31;100138.43;;;8.98;85.53
35507;BME280;36461;52.018;21.036;2023-04-16T00:33:59;100139.33;;;8.98;85.55
35507;BME280;36461;52.018;21.036;2023-04-16T00:36:28;100143.41;;;8.94;85.62
35507;BME280;36461;52.018;21.036;2023-04-16T00:38:56;100144.46;;;8.87;85.64
35507;BME280;36461;52.018;21.036;2023-04-16T00:41:24;100143.23;;;8.82;85.70
35507;BME280;36461;52.018;21.036;2023-04-16T00:43:53;100145.02;;;8.79;85.89
35507;BME280;36461;52.018;21.036;2023-04-16T00:46:23;100143.98;;;8.80;86.15
35507;BME280;36461;52.018;21.036;2023-04-16T00:48:52;100143.42;;;8.81;86.36
35507;BME280;36461;52.018;21.036;2023-04-16T00:51:21;100145.38;;;8.79;85.84
35507;BME280;36461;52.018;21.036;2023-04-16T00:53:49;100143.79;;;8.80;86.30
35507;BME280;36461;52.018;21.036;2023-04-16T00:56:18;100143.91;;;8.82;86.32
35507;BME280;36461;52.018;21.036;2023-04-16T00:58:48;100147.83;;;8.78;86.49
35507;BME280;36461;52.018;21.036;2023-04-16T01:01:16;100148.36;;;8.77;86.42
35507;BME280;36461;52.018;21.036;2023-04-16T01:03:46;100146.55;;;8.80;86.58
35507;BME280;36461;52.018;21.036;2023-04-16T01:06:16;100150.35;;;8.80;86.53
35507;BME280;36461;52.018;21.036;2023-04-16T01:08:46;100151.05;;;8.80;86.54
35507;BME280;36461;52.018;21.036;2023-04-16T01:11:15;100150.02;;;8.80;86.66
35507;BME280;36461;52.018;21.036;2023-04-16T01:13:43;100153.98;;;8.80;86.73
35507;BME280;36461;52.018;21.036;2023-04-16T01:16:11;100150.89;;;8.80;86.53
35507;BME280;36461;52.018;21.036;2023-04-16T01:18:39;100152.10;;;8.79;86.55
35507;BME280;36461;52.018;21.036;2023-04-16T01:21:07;100155.98;;;8.77;86.54
35507;BME280;36461;52.018;21.036;2023-04-16T01:23:35;100151.34;;;8.69;86.51
35507;BME280;36461;52.018;21.036;2023-04-16T01:26:03;100147.88;;;8.70;86.67
35507;BME280;36461;52.018;21.036;2023-04-16T01:28:31;100148.73;;;8.70;86.87
35507;BME280;36461;52.018;21.036;2023-04-16T01:31:00;100150.09;;;8.71;86.97
35507;BME280;36461;52.018;21.036;2023-04-16T01:33:40;100152.17;;;8.71;86.79
35507;BME280;36461;52.018;21.036;2023-04-16T01:36:09;100152.83;;;8.72;86.93
35507;BME280;36461;52.018;21.036;2023-04-16T01:38:38;100150.99;;;8.75;86.83
35507;BME280;36461;52.018;21.036;2023-04-16T01:41:06;100154.08;;;8.77;87.06
35507;BME280;36461;52.018;21.036;2023-04-16T01:43:35;100152.66;;;8.78;86.94
35507;BME280;36461;52.018;21.036;2023-04-16T01:53:42;100170.01;;;8.74;86.85
35507;BME280;36461;52.018;21.036;2023-04-16T01:56:10;100168.67;;;8.73;86.57
35507;BME280;36461;52.018;21.036;2023-04-16T01:58:40;100166.27;;;8.73;86.79
35507;BME280;36461;52.018;21.036;2023-04-16T02:01:09;100167.94;;;8.74;86.80
35507;BME280;36461;52.018;21.036;2023-04-16T02:03:38;100166.60;;;8.73;86.77
35507;BME280;36461;52.018;21.036;2023-04-16T02:06:07;100168.61;;;8.75;86.95
35507;BME280;36461;52.018;21.036;2023-04-16T02:08:35;100172.39;;;8.76;86.79
35507;BME280;36461;52.018;21.036;2023-04-16T02:11:03;100177.07;;;8.75;86.86
35507;BME280;36461;52.018;21.036;2023-04-16T02:13:31;100184.89;;;8.73;86.84
35507;BME280;36461;52.018;21.036;2023-04-16T02:16:00;100189.80;;;8.70;86.75
35507;BME280;36461;52.018;21.036;2023-04-16T02:18:48;100196.95;;;8.67;86.90
35507;BME280;36461;52.018;21.036;2023-04-16T02:21:17;100194.23;;;8.66;86.76
35507;BME280;36461;52.018;21.036;2023-04-16T02:23:45;100204.05;;;8.66;87.03
35507;BME280;36461;52.018;21.036;2023-04-16T02:26:23;100199.51;;;8.68;87.04
35507;BME280;36461;52.018;21.036;2023-04-16T02:28:51;100200.54;;;8.68;87.07
35507;BME280;36461;52.018;21.036;2023-04-16T02:31:19;100201.70;;;8.70;87.37
35507;BME280;36461;52.018;21.036;2023-04-16T02:33:49;100204.40;;;8.72;87.08
35507;BME280;36461;52.018;21.036;2023-04-16T02:36:17;100209.35;;;8.68;87.04
35507;BME280;36461;52.018;21.036;2023-04-16T02:38:45;100211.23;;;8.69;87.07
35507;BME280;36461;52.018;21.036;2023-04-16T02:41:14;100209.86;;;8.68;87.08
35507;BME280;36461;52.018;21.036;2023-04-16T02:43:42;100212.58;;;8.64;87.07
35507;BME280;36461;52.018;21.036;2023-04-16T02:46:10;100207.38;;;8.64;87.43
35507;BME280;36461;52.018;21.036;2023-04-16T02:48:39;100211.96;;;8.67;87.42
35507;BME280;36461;52.018;21.036;2023-04-16T02:51:07;100212.10;;;8.68;87.40
35507;BME280;36461;52.018;21.036;2023-04-16T02:53:35;100214.89;;;8.67;87.30
35507;BME280;36461;52.018;21.036;2023-04-16T02:56:03;100220.09;;;8.66;87.37
35507;BME280;36461;52.018;21.036;2023-04-16T02:58:31;100222.98;;;8.67;87.36
35507;BME280;36461;52.018;21.036;2023-04-16T03:00:59;100221.26;;;8.68;87.41
35507;BME280;36461;52.018;21.036;2023-04-16T03:03:28;100219.69;;;8.68;87.56
35507;BME280;36461;52.018;21.036;2023-04-16T03:05:55;100220.33;;;8.70;87.51
35507;BME280;36461;52.018;21.036;2023-04-16T03:08:23;100217.23;;;8.70;87.58
35507;BME280;36461;52.018;21.036;2023-04-16T03:10:51;100218.21;;;8.72;87.57
35507;BME280;36461;52.018;21.036;2023-04-16T03:13:19;100218.55;;;8.72;87.39
35507;BME280;36461;52.018;21.036;2023-04-16T03:15:48;100216.61;;;8.74;87.35
35507;BME280;36461;52.018;21.036;2023-04-16T03:18:16;100216.63;;;8.73;87.33
35507;BME280;36461;52.018;21.036;2023-04-16T03:20:45;100217.13;;;8.74;87.32
35507;BME280;36461;52.018;21.036;2023-04-16T03:23:12;100211.68;;;8.71;87.23
35507;BME280;36461;52.018;21.036;2023-04-16T03:25:41;100214.49;;;8.69;87.18
35507;BME280;36461;52.018;21.036;2023-04-16T03:28:11;100218.91;;;8.65;87.26
35507;BME280;36461;52.018;21.036;2023-04-16T03:30:39;100215.96;;;8.65;87.44
35507;BME280;36461;52.018;21.036;2023-04-16T03:33:07;100221.09;;;8.68;87.50
35507;BME280;36461;52.018;21.036;2023-04-16T03:35:36;100221.42;;;8.68;87.47
35507;BME280;36461;52.018;21.036;2023-04-16T03:38:04;100219.17;;;8.69;87.29
35507;BME280;36461;52.018;21.036;2023-04-16T03:40:32;100224.66;;;8.70;87.65
35507;BME280;36461;52.018;21.036;2023-04-16T03:43:00;100219.27;;;8.71;87.55
35507;BME280;36461;52.018;21.036;2023-04-16T03:45:28;100218.20;;;8.73;87.47
35507;BME280;36461;52.018;21.036;2023-04-16T03:47:56;100217.17;;;8.72;87.63
35507;BME280;36461;52.018;21.036;2023-04-16T03:50:25;100221.49;;;8.71;87.52
35507;BME280;36461;52.018;21.036;2023-04-16T03:52:53;100229.59;;;8.72;87.50
35507;BME280;36461;52.018;21.036;2023-04-16T03:55:22;100233.16;;;8.74;87.62
35507;BME280;36461;52.018;21.036;2023-04-16T03:57:50;100240.16;;;8.77;87.62
35507;BME280;36461;52.018;21.036;2023-04-16T04:00:18;100239.95;;;8.78;87.66
35507;BME280;36461;52.018;21.036;2023-04-16T04:02:59;100239.66;;;8.76;87.40
35507;BME280;36461;52.018;21.036;2023-04-16T04:05:28;100241.04;;;8.77;87.62
35507;BME280;36461;52.018;21.036;2023-04-16T04:07:55;100244.04;;;8.74;87.53
35507;BME280;36461;52.018;21.036;2023-04-16T04:10:24;100245.55;;;8.76;87.59
35507;BME280;36461;52.018;21.036;2023-04-16T04:12:53;100247.17;;;8.79;87.87
35507;BME280;36461;52.018;21.036;2023-04-16T04:15:21;100252.16;;;8.80;87.49
35507;BME280;36461;52.018;21.036;2023-04-16T04:17:48;100257.70;;;8.79;87.51
35507;BME280;36461;52.018;21.036;2023-04-16T04:20:17;100259.88;;;8.82;87.79
35507;BME280;36461;52.018;21.036;2023-04-16T04:22:45;100264.53;;;8.82;87.41
35507;BME280;36461;52.018;21.036;2023-04-16T04:25:15;100266.13;;;8.81;87.69
35507;BME280;36461;52.018;21.036;2023-04-16T04:27:43;100268.61;;;8.84;87.70
35507;BME280;36461;52.018;21.036;2023-04-16T04:30:11;100271.44;;;8.88;87.89
35507;BME280;36461;52.018;21.036;2023-04-16T04:32:40;100270.65;;;8.92;87.63
35507;BME280;36461;52.018;21.036;2023-04-16T04:35:08;100275.73;;;8.95;87.72
35507;BME280;36461;52.018;21.036;2023-04-16T04:37:37;100279.80;;;8.98;87.35
35507;BME280;36461;52.018;21.036;2023-04-16T04:40:13;100279.48;;;8.97;87.37
35507;BME280;36461;52.018;21.036;2023-04-16T04:42:41;100278.46;;;8.97;87.42
35507;BME280;36461;52.018;21.036;2023-04-16T04:45:09;100281.73;;;9.04;87.58
35507;BME280;36461;52.018;21.036;2023-04-16T04:47:38;100285.75;;;9.08;87.60
35507;BME280;36461;52.018;21.036;2023-04-16T04:50:07;100281.52;;;9.11;87.45
35507;BME280;36461;52.018;21.036;2023-04-16T04:52:35;100282.24;;;9.16;87.18
35507;BME280;36461;52.018;21.036;2023-04-16T04:55:03;100281.98;;;9.19;87.26
35507;BME280;36461;52.018;21.036;2023-04-16T04:57:32;100285.56;;;9.21;86.95
35507;BME280;36461;52.018;21.036;2023-04-16T05:00:01;100286.29;;;9.25;87.17
35507;BME280;36461;52.018;21.036;2023-04-16T05:02:38;100291.63;;;9.32;86.97
35507;BME280;36461;52.018;21.036;2023-04-16T05:05:07;100291.05;;;9.34;87.00
35507;BME280;36461;52.018;21.036;2023-04-16T05:07:35;100292.52;;;9.38;86.72
35507;BME280;36461;52.018;21.036;2023-04-16T05:10:05;100294.77;;;9.43;86.71
35507;BME280;36461;52.018;21.036;2023-04-16T05:12:33;100292.02;;;9.49;86.47
35507;BME280;36461;52.018;21.036;2023-04-16T05:15:01;100296.50;;;9.55;86.53
35507;BME280;36461;52.018;21.036;2023-04-16T05:17:29;100298.07;;;9.61;86.24
35507;BME280;36461;52.018;21.036;2023-04-16T05:19:59;100293.84;;;9.64;86.11
35507;BME280;36461;52.018;21.036;2023-04-16T05:22:27;100298.91;;;9.73;85.97
35507;BME280;36461;52.018;21.036;2023-04-16T05:24:55;100299.18;;;9.82;85.75
35507;BME280;36461;52.018;21.036;2023-04-16T05:27:23;100294.30;;;9.88;85.33
35507;BME280;36461;52.018;21.036;2023-04-16T05:30:16;100299.66;;;9.83;84.60
35507;BME280;36461;52.018;21.036;2023-04-16T05:32:44;100296.64;;;9.79;84.67
35507;BME280;36461;52.018;21.036;2023-04-16T05:35:12;100297.82;;;9.86;84.71
35507;BME280;36461;52.018;21.036;2023-04-16T05:37:44;100303.61;;;10.01;84.96
35507;BME280;36461;52.018;21.036;2023-04-16T05:40:12;100306.62;;;10.09;84.21
35507;BME280;36461;52.018;21.036;2023-04-16T05:42:40;100308.38;;;10.20;84.54
35507;BME280;36461;52.018;21.036;2023-04-16T05:45:09;100309.87;;;10.32;83.81
35507;BME280;36461;52.018;21.036;2023-04-16T05:47:37;100304.26;;;10.41;83.47
35507;BME280;36461;52.018;21.036;2023-04-16T05:50:06;100302.30;;;10.53;83.14
35507;BME280;36461;52.018;21.036;2023-04-16T05:52:34;100300.16;;;10.60;82.60
35507;BME280;36461;52.018;21.036;2023-04-16T05:55:02;100304.08;;;10.67;82.40
35507;BME280;36461;52.018;21.036;2023-04-16T05:57:30;100307.73;;;10.82;82.33
35507;BME280;36461;52.018;21.036;2023-04-16T05:59:58;100307.33;;;10.99;82.21
35507;BME280;36461;52.018;21.036;2023-04-16T06:02:26;100310.23;;;11.15;81.93
35507;BME280;36461;52.018;21.036;2023-04-16T06:04:55;100307.69;;;11.28;81.58
35507;BME280;36461;52.018;21.036;2023-04-16T06:07:23;100307.60;;;11.35;81.10
35507;BME280;36461;52.018;21.036;2023-04-16T06:09:51;100310.05;;;11.44;80.83
35507;BME280;36461;52.018;21.036;2023-04-16T06:12:19;100311.05;;;11.50;79.84
35507;BME280;36461;52.018;21.036;2023-04-16T06:14:47;100311.20;;;11.40;79.32
35507;BME280;36461;52.018;21.036;2023-04-16T06:17:15;100313.20;;;11.48;79.92
35507;BME280;36461;52.018;21.036;2023-04-16T06:19:43;100313.39;;;11.56;79.65
35507;BME280;36461;52.018;21.036;2023-04-16T06:22:11;100314.58;;;11.67;79.58
35507;BME280;36461;52.018;21.036;2023-04-16T06:24:39;100315.58;;;11.72;78.37
35507;BME280;36461;52.018;21.036;2023-04-16T06:27:07;100320.71;;;11.65;78.03
35507;BME280;36461;52.018;21.036;2023-04-16T06:29:35;100326.80;;;11.64;78.05
35507;BME280;36461;52.018;21.036;2023-04-16T06:32:08;100323.02;;;11.73;78.02
35507;BME280;36461;52.018;21.036;2023-04-16T06:34:37;100326.73;;;11.90;78.25
35507;BME280;36461;52.018;21.036;2023-04-16T06:37:05;100323.66;;;12.06;77.65
35507;BME280;36461;52.018;21.036;2023-04-16T06:39:37;100327.94;;;12.25;77.47
35507;BME280;36461;52.018;21.036;2023-04-16T06:42:05;100332.84;;;12.28;75.99
35507;BME280;36461;52.018;21.036;2023-04-16T06:44:34;100333.95;;;12.18;76.04
35507;BME280;36461;52.018;21.036;2023-04-16T06:47:02;100334.42;;;12.19;75.94
35507;BME280;36461;52.018;21.036;2023-04-16T06:49:31;100337.85;;;12.20;75.86
35507;BME280;36461;52.018;21.036;2023-04-16T06:51:59;100336.86;;;12.28;75.81
35507;BME280;36461;52.018;21.036;2023-04-16T06:54:26;100336.69;;;12.23;74.93
35507;BME280;36461;52.018;21.036;2023-04-16T06:56:54;100340.60;;;12.21;75.47
35507;BME280;36461;52.018;21.036;2023-04-16T06:59:23;100341.32;;;12.25;75.47
35507;BME280;36461;52.018;21.036;2023-04-16T07:01:51;100339.73;;;12.30;75.39
35507;BME280;36461;52.018;21.036;2023-04-16T07:04:19;100345.06;;;12.35;75.27
35507;BME280;36461;52.018;21.036;2023-04-16T07:06:48;100348.42;;;12.34;75.04
35507;BME280;36461;52.018;21.036;2023-04-16T07:09:16;100350.55;;;12.37;74.79
35507;BME280;36461;52.018;21.036;2023-04-16T07:11:47;100355.30;;;12.40;74.52
35507;BME280;36461;52.018;21.036;2023-04-16T07:14:15;100358.14;;;12.42;74.30
35507;BME280;36461;52.018;21.036;2023-04-16T07:16:43;100363.98;;;12.44;74.12
35507;BME280;36461;52.018;21.036;2023-04-16T07:19:11;100366.35;;;12.50;73.95
35507;BME280;36461;52.018;21.036;2023-04-16T07:21:39;100371.75;;;12.54;73.37
35507;BME280;36461;52.018;21.036;2023-04-16T07:24:09;100373.85;;;12.45;72.79
35507;BME280;36461;52.018;21.036;2023-04-16T07:26:38;100379.34;;;12.42;73.13
35507;BME280;36461;52.018;21.036;2023-04-16T07:29:06;100379.83;;;12.47;73.15
35507;BME280;36461;52.018;21.036;2023-04-16T07:31:35;100382.77;;;12.43;72.78
35507;BME280;36461;52.018;21.036;2023-04-16T07:34:03;100385.23;;;12.33;72.66
35507;BME280;36461;52.018;21.036;2023-04-16T07:36:31;100390.73;;;12.25;72.79
35507;BME280;36461;52.018;21.036;2023-04-16T07:38:59;100391.05;;;12.26;73.08
35507;BME280;36461;52.018;21.036;2023-04-16T07:41:27;100390.58;;;12.30;72.89
35507;BME280;36461;52.018;21.036;2023-04-16T07:43:56;100392.88;;;12.29;72.84
35507;BME280;36461;52.018;21.036;2023-04-16T07:46:25;100394.74;;;12.30;72.86
35507;BME280;36461;52.018;21.036;2023-04-16T07:49:02;100396.76;;;12.32;72.73
35507;BME280;36461;52.018;21.036;2023-04-16T07:51:30;100400.77;;;12.36;72.59
35507;BME280;36461;52.018;21.036;2023-04-16T07:54:00;100403.14;;;12.41;73.13
35507;BME280;36461;52.018;21.036;2023-04-16T07:56:27;100407.92;;;12.52;72.85
35507;BME280;36461;52.018;21.036;2023-04-16T07:58:55;100405.50;;;12.65;72.64
35507;BME280;36461;52.018;21.036;2023-04-16T08:01:29;100412.30;;;12.77;72.25
35507;BME280;36461;52.018;21.036;2023-04-16T08:03:58;100412.67;;;12.89;72.07
35507;BME280;36461;52.018;21.036;2023-04-16T08:06:26;100413.29;;;13.00;71.58
35507;BME280;36461;52.018;21.036;2023-04-16T08:08:54;100416.59;;;13.04;71.21
35507;BME280;36461;52.018;21.036;2023-04-16T08:11:23;100418.79;;;13.05;71.18
35507;BME280;36461;52.018;21.036;2023-04-16T08:13:50;100419.55;;;13.12;70.95
35507;BME280;36461;52.018;21.036;2023-04-16T08:16:18;100415.55;;;13.24;70.82
35507;BME280;36461;52.018;21.036;2023-04-16T08:18:47;100418.13;;;13.34;70.11
35507;BME280;36461;52.018;21.036;2023-04-16T08:21:15;100420.78;;;13.41;70.08
35507;BME280;36461;52.018;21.036;2023-04-16T08:23:42;100422.73;;;13.36;69.42
35507;BME280;36461;52.018;21.036;2023-04-16T08:26:10;100429.22;;;13.34;69.77
35507;BME280;36461;52.018;21.036;2023-04-16T08:28:38;100432.35;;;13.34;69.73
35507;BME280;36461;52.018;21.036;2023-04-16T08:31:06;100423.80;;;13.35;69.86
35507;BME280;36461;52.018;21.036;2023-04-16T08:33:34;100424.34;;;13.47;70.18
35507;BME280;36461;52.018;21.036;2023-04-16T08:36:03;100425.89;;;13.56;69.98
35507;BME280;36461;52.018;21.036;2023-04-16T08:38:32;100426.77;;;13.63;69.96
35507;BME280;36461;52.018;21.036;2023-04-16T08:41:02;100431.94;;;13.68;69.57
35507;BME280;36461;52.018;21.036;2023-04-16T08:43:33;100429.23;;;13.70;69.57
35507;BME280;36461;52.018;21.036;2023-04-16T08:46:04;100431.27;;;13.72;69.18
35507;BME280;36461;52.018;21.036;2023-04-16T08:48:33;100433.05;;;13.74;68.74
35507;BME280;36461;52.018;21.036;2023-04-16T08:51:02;100436.84;;;13.75;68.17
35507;BME280;36461;52.018;21.036;2023-04-16T08:53:47;100434.77;;;13.87;68.36
35507;BME280;36461;52.018;21.036;2023-04-16T08:56:19;100430.70;;;14.07;68.05
35507;BME280;36461;52.018;21.036;2023-04-16T08:58:50;100430.04;;;14.22;67.40
35507;BME280;36461;52.018;21.036;2023-04-16T09:01:18;100431.78;;;14.29;67.21
35507;BME280;36461;52.018;21.036;2023-04-16T09:03:47;100431.48;;;14.62;67.29
35507;BME280;36461;52.018;21.036;2023-04-16T09:06:16;100434.45;;;14.84;66.39
35507;BME280;36461;52.018;21.036;2023-04-16T09:08:45;100437.09;;;14.90;65.78
35507;BME280;36461;52.018;21.036;2023-04-16T09:11:17;100441.66;;;15.00;65.47
35507;BME280;36461;52.018;21.036;2023-04-16T09:13:46;100451.21;;;15.08;65.61
35507;BME280;36461;52.018;21.036;2023-04-16T09:16:14;100454.95;;;15.20;64.70
35507;BME280;36461;52.018;21.036;2023-04-16T09:18:42;100456.91;;;15.09;63.75
35507;BME280;36461;52.018;21.036;2023-04-16T09:21:11;100457.92;;;15.09;63.40
35507;BME280;36461;52.018;21.036;2023-04-16T09:23:39;100458.66;;;15.16;63.45
35507;BME280;36461;52.018;21.036;2023-04-16T09:26:08;100456.17;;;15.30;63.55
35507;BME280;36461;52.018;21.036;2023-04-16T09:28:44;100458.78;;;15.38;63.21
35507;BME280;36461;52.018;21.036;2023-04-16T09:31:14;100456.05;;;15.60;63.53
35507;BME280;36461;52.018;21.036;2023-04-16T09:33:43;100459.90;;;15.84;63.13
35507;BME280;36461;52.018;21.036;2023-04-16T09:36:27;100460.80;;;15.84;61.96
35507;BME280;36461;52.018;21.036;2023-04-16T09:38:55;100460.52;;;15.82;61.84
35507;BME280;36461;52.018;21.036;2023-04-16T09:41:29;100460.14;;;15.96;62.05
35507;BME280;36461;52.018;21.036;2023-04-16T09:43:59;100461.90;;;16.05;61.56
35507;BME280;36461;52.018;21.036;2023-04-16T09:46:35;100467.53;;;16.05;61.35
35507;BME280;36461;52.018;21.036;2023-04-16T09:49:07;100468.88;;;16.19;61.70
35507;BME280;36461;52.018;21.036;2023-04-16T09:51:37;100469.82;;;16.23;61.20
35507;BME280;36461;52.018;21.036;2023-04-16T09:54:05;100468.32;;;16.32;61.52
35507;BME280;36461;52.018;21.036;2023-04-16T09:56:42;100472.30;;;16.45;61.40
35507;BME280;36461;52.018;21.036;2023-04-16T09:59:20;100472.55;;;16.53;60.57
35507;BME280;36461;52.018;21.036;2023-04-16T10:01:49;100476.55;;;16.48;60.19
35507;BME280;36461;52.018;21.036;2023-04-16T10:04:17;100483.46;;;16.40;59.65
35507;BME280;36461;52.018;21.036;2023-04-16T10:07:04;100484.83;;;16.34;60.04
35507;BME280;36461;52.018;21.036;2023-04-16T10:09:41;100487.55;;;16.28;59.97
35507;BME280;36461;52.018;21.036;2023-04-16T10:12:09;100489.23;;;16.26;60.00
35507;BME280;36461;52.018;21.036;2023-04-16T10:14:40;100489.48;;;16.38;60.14
35507;BME280;36461;52.018;21.036;2023-04-16T10:17:09;100485.02;;;16.49;59.83
35507;BME280;36461;52.018;21.036;2023-04-16T10:19:37;100488.95;;;16.67;59.76
35507;BME280;36461;52.018;21.036;2023-04-16T10:22:06;100491.86;;;16.71;59.33
35507;BME280;36461;52.018;21.036;2023-04-16T10:24:33;100495.39;;;16.67;59.09
35507;BME280;36461;52.018;21.036;2023-04-16T10:27:02;100501.11;;;16.62;59.03
35507;BME280;36461;52.018;21.036;2023-04-16T10:29:31;100501.32;;;16.61;59.08
35507;BME280;36461;52.018;21.036;2023-04-16T10:32:00;100501.40;;;16.66;58.85
35507;BME280;36461;52.018;21.036;2023-04-16T10:34:30;100500.50;;;16.63;58.48
35507;BME280;36461;52.018;21.036;2023-04-16T10:36:58;100499.35;;;16.68;58.49
35507;BME280;36461;52.018;21.036;2023-04-16T10:39:27;100497.54;;;16.89;58.63
35507;BME280;36461;52.018;21.036;2023-04-16T10:42:10;100496.05;;;17.03;58.13
35507;BME280;36461;52.018;21.036;2023-04-16T10:44:41;100500.77;;;17.03;57.74
35507;BME280;36461;52.018;21.036;2023-04-16T10:47:12;100495.92;;;17.14;57.33
35507;BME280;36461;52.018;21.036;2023-04-16T10:49:41;100496.62;;;17.20;57.27
35507;BME280;36461;52.018;21.036;2023-04-16T10:52:13;100499.22;;;17.29;56.96
35507;BME280;36461;52.018;21.036;2023-04-16T10:54:45;100500.18;;;17.34;56.27
35507;BME280;36461;52.018;21.036;2023-04-16T10:57:18;100499.08;;;17.41;56.08
35507;BME280;36461;52.018;21.036;2023-04-16T10:59:48;100502.11;;;17.49;56.21
35507;BME280;36461;52.018;21.036;2023-04-16T11:02:17;100501.98;;;17.57;56.03
35507;BME280;36461;52.018;21.036;2023-04-16T11:04:50;100504.68;;;17.70;55.78
35507;BME280;36461;52.018;21.036;2023-04-16T11:07:19;100507.77;;;17.77;55.87
35507;BME280;36461;52.018;21.036;2023-04-16T11:09:56;100504.48;;;17.95;55.79
35507;BME280;36461;52.018;21.036;2023-04-16T11:12:40;100505.98;;;18.16;55.25
35507;BME280;36461;52.018;21.036;2023-04-16T11:15:14;100504.66;;;18.29;54.70
35507;BME280;36461;52.018;21.036;2023-04-16T11:17:44;100501.68;;;18.29;53.68
35507;BME280;36461;52.018;21.036;2023-04-16T11:20:16;100505.48;;;18.18;53.30
35507;BME280;36461;52.018;21.036;2023-04-16T11:22:48;100501.66;;;18.20;53.36
35507;BME280;36461;52.018;21.036;2023-04-16T11:25:21;100494.92;;;18.25;53.12
35507;BME280;36461;52.018;21.036;2023-04-16T11:27:51;100496.09;;;18.17;52.67
35507;BME280;36461;52.018;21.036;2023-04-16T11:30:31;100493.66;;;18.00;52.87
35507;BME280;36461;52.018;21.036;2023-04-16T11:33:12;100497.02;;;17.72;52.67
35507;BME280;36461;52.018;21.036;2023-04-16T11:35:40;100490.55;;;17.49;53.14
35507;BME280;36461;52.018;21.036;2023-04-16T11:38:08;100495.11;;;17.46;53.16
35507;BME280;36461;52.018;21.036;2023-04-16T11:40:36;100493.67;;;17.50;52.99
35507;BME280;36461;52.018;21.036;2023-04-16T11:43:13;100485.40;;;17.45;52.87
35507;BME280;36461;52.018;21.036;2023-04-16T11:46:14;100489.34;;;17.49;53.18
35507;BME280;36461;52.018;21.036;2023-04-16T11:48:54;100490.03;;;17.49;52.92
35507;BME280;36461;52.018;21.036;2023-04-16T11:51:22;100485.19;;;17.54;53.06
35507;BME280;36461;52.018;21.036;2023-04-16T11:53:52;100487.52;;;17.62;52.76
35507;BME280;36461;52.018;21.036;2023-04-16T11:56:28;100487.63;;;17.63;52.54
35507;BME280;36461;52.018;21.036;2023-04-16T11:59:09;100489.12;;;17.67;52.60
35507;BME280;36461;52.018;21.036;2023-04-16T12:01:39;100492.55;;;17.71;52.90
35507;BME280;36461;52.018;21.036;2023-04-16T12:04:08;100488.84;;;17.72;52.43
35507;BME280;36461;52.018;21.036;2023-04-16T12:06:37;100485.95;;;17.67;52.27
35507;BME280;36461;52.018;21.036;2023-04-16T12:09:24;100489.92;;;17.71;52.07
35507;BME280;36461;52.018;21.036;2023-04-16T12:11:53;100487.89;;;17.70;51.55
35507;BME280;36461;52.018;21.036;2023-04-16T12:14:22;100492.30;;;17.67;51.82
35507;BME280;36461;52.018;21.036;2023-04-16T12:16:50;100492.88;;;17.63;51.91
35507;BME280;36461;52.018;21.036;2023-04-16T12:19:18;100492.96;;;17.46;52.02
35507;BME280;36461;52.018;21.036;2023-04-16T12:21:48;100493.05;;;17.36;51.86
35507;BME280;36461;52.018;21.036;2023-04-16T12:24:17;100490.69;;;17.20;51.74
35507;BME280;36461;52.018;21.036;2023-04-16T12:26:52;100490.45;;;17.09;51.99
35507;BME280;36461;52.018;21.036;2023-04-16T12:29:30;100488.04;;;17.20;52.41
35507;BME280;36461;52.018;21.036;2023-04-16T12:31:58;100486.95;;;17.33;52.50
35507;BME280;36461;52.018;21.036;2023-04-16T12:34:27;100488.80;;;17.46;52.30
35507;BME280;36461;52.018;21.036;2023-04-16T12:37:15;100482.92;;;17.63;52.07
35507;BME280;36461;52.018;21.036;2023-04-16T12:39:43;100481.95;;;17.64;51.72
35507;BME280;36461;52.018;21.036;2023-04-16T12:42:12;100478.30;;;17.55;51.67
35507;BME280;36461;52.018;21.036;2023-04-16T12:44:41;100481.84;;;17.39;51.81
35507;BME280;36461;52.018;21.036;2023-04-16T12:47:10;100484.91;;;17.32;51.78
35507;BME280;36461;52.018;21.036;2023-04-16T12:49:39;100482.24;;;17.17;52.34
35507;BME280;36461;52.018;21.036;2023-04-16T12:52:07;100482.44;;;17.20;52.03
35507;BME280;36461;52.018;21.036;2023-04-16T12:54:35;100480.23;;;17.16;51.72
35507;BME280;36461;52.018;21.036;2023-04-16T12:57:03;100478.09;;;17.11;51.74
35507;BME280;36461;52.018;21.036;2023-04-16T12:59:31;100478.31;;;17.07;51.92
35507;BME280;36461;52.018;21.036;2023-04-16T13:02:00;100479.54;;;17.07;52.07
35507;BME280;36461;52.018;21.036;2023-04-16T13:04:29;100479.86;;;17.02;51.76
35507;BME280;36461;52.018;21.036;2023-04-16T13:06:58;100482.36;;;17.04;52.17